Atalandi — SVBA — position and weather

sailwx.info

Track history (hours):
 
Tides and Currents Weather Stations Pressure Air Temp Water Temp Dewpoint Dewpoint Depression Visibility Wind Speed Wind Dir Waves Ship Positions

Atalandi

Last reported at 2017-Jan-11 12:25 UTC. Time now 2017-Jan-17 11:03 UTC.
Position N 39°39' E 025°52'.

Length 248 m; draft 12.3 m.

Type: Ship (hazmat cat A). MMSI: 240269000.

Date/timePositionNaut miles runAvg speedWind from/ knotsBaromVisibWave heightAir tempDewpointWater temp
2017-Jan-11 12:25N 39°39' E 025°52'2 2.6
2017-Jan-11 11:28N 39°37' E 025°50'5 1.6
2017-Jan-11 08:31N 39°32' E 025°48'8 3.2
2017-Jan-11 06:08N 39°27' E 025°41'  
2017-Jan-07 20:30N 39°39' E 025°39'12710.4
2017-Jan-07 08:16N 37°43' E 024°32'  
2017-Jan-04 11:18N 44°02' E 014°06'911.9
2017-Jan-04 10:32N 44°10' E 013°59'1211.8
2017-Jan-04 09:31N 44°20' E 013°49'1111.9
2017-Jan-04 08:33N 44°29' E 013°41'1211.9
2017-Jan-04 07:33N 44°39' E 013°31'1212.0
2017-Jan-04 06:33N 44°49' E 013°22'1211.9
2017-Jan-04 05:33N 44°59' E 013°13'1212.0
2017-Jan-04 04:33N 45°09' E 013°03'1211.9
2017-Jan-04 03:33N 45°20' E 012°59'1211.8
2017-Jan-04 02:33N 45°29' E 013°11'1211.8
2017-Jan-04 01:33N 45°36' E 013°25'1211.8
2017-Jan-04 00:33N 45°37' E 013°41'4 3.1
2017-Jan-03 23:25N 45°37' E 013°47'0 0.0
2017-Jan-03 22:31N 45°37' E 013°47'0 0.0
2017-Jan-03 21:31N 45°37' E 013°47'0 0.0
2017-Jan-03 20:31N 45°37' E 013°46'0 0.0
2017-Jan-03 19:28N 45°37' E 013°47'0 0.0
2017-Jan-03 18:16N 45°37' E 013°47'0 0.0
2017-Jan-03 17:28N 45°37' E 013°47'0 0.0
2017-Jan-03 16:28N 45°37' E 013°46'0 0.0
2017-Jan-03 15:31N 45°37' E 013°46'0 0.0
2017-Jan-03 14:28N 45°37' E 013°47'0 0.0
2017-Jan-03 13:31N 45°37' E 013°47'0 0.0
2017-Jan-03 12:07N 45°37' E 013°47'0 0.0
2017-Jan-03 11:25N 45°37' E 013°47'0 0.0
2017-Jan-03 10:10N 45°37' E 013°47'0 0.0
2017-Jan-03 09:28N 45°37' E 013°47'0 0.0
2017-Jan-03 08:33N 45°37' E 013°46'0 0.0
2017-Jan-03 07:32N 45°37' E 013°46'0 0.0
2017-Jan-03 06:25N 45°37' E 013°46'0 0.0
2017-Jan-03 05:31N 45°37' E 013°46'0 0.0
2017-Jan-03 04:31N 45°37' E 013°46'0 0.0
2017-Jan-03 03:28N 45°37' E 013°47'0 0.0
2017-Jan-03 02:19N 45°37' E 013°46'0 0.0
2017-Jan-03 01:25N 45°37' E 013°47'0 0.0
2017-Jan-03 00:31N 45°37' E 013°47'0 0.0
2017-Jan-02 23:25N 45°37' E 013°47'0 0.0
2017-Jan-02 22:31N 45°37' E 013°47'0 0.0
2017-Jan-02 21:22N 45°37' E 013°47'0 0.0
2017-Jan-02 20:25N 45°37' E 013°46'0 0.0
2017-Jan-02 19:25N 45°37' E 013°47'0 0.0
2017-Jan-02 18:31N 45°37' E 013°47'0 0.0
2017-Jan-02 17:25N 45°37' E 013°47'0 0.0
2017-Jan-02 16:33N 45°37' E 013°47'3 3.4
2017-Jan-02 15:33N 45°37' E 013°42'1 0.9
2017-Jan-02 14:31N 45°38' E 013°41'0 0.1
2017-Jan-02 13:31N 45°38' E 013°40'0 0.1
2017-Jan-02 12:10N 45°38' E 013°40'0 0.0
2017-Jan-02 11:28N 45°38' E 013°40'0 0.1
2017-Jan-02 10:28N 45°38' E 013°40'0 0.1
2017-Jan-02 09:28N 45°38' E 013°40'0 0.0
2017-Jan-02 08:33N 45°38' E 013°40'2 1.7
2017-Jan-02 07:33N 45°37' E 013°38'7 7.3
2017-Jan-02 06:33N 45°33' E 013°29'1110.8
2017-Jan-02 05:34N 45°27' E 013°16'1111.0
2017-Jan-02 04:34N 45°17' E 013°11'1211.6
2017-Jan-02 03:33N 45°06' E 013°16'1211.6
2017-Jan-02 02:33N 44°55' E 013°23'1211.6
2017-Jan-02 01:33N 44°46' E 013°32'1211.7
2017-Jan-02 00:33N 44°36' E 013°41'1211.8
2017-Jan-01 23:34N 44°26' E 013°50'1212.0
2017-Jan-01 22:33N 44°16' E 013°59'1212.1
2017-Jan-01 21:33N 44°06' E 014°08'2512.1
2017-Jan-01 19:30N 43°46' E 014°30'  
Track history (hours):
 
Tides and Currents Weather Stations Pressure Air Temp Water Temp Dewpoint Dewpoint Depression Visibility Wind Speed Wind Dir Waves Ship Positions

Atalandi

Last reported at 2017-Jan-11 12:25 UTC. Time now 2017-Jan-17 11:03 UTC.
Position N 39°39' E 025°52'.

Length 248 m; draft 12.3 m.

Type: Ship (hazmat cat A). MMSI: 240269000.

Date/timePositionNaut miles runAvg speedWind from/ knotsBaromVisibWave heightAir tempDewpointWater temp
2017-Jan-11 12:25N 39°39' E 025°52'2 2.6
2017-Jan-11 11:28N 39°37' E 025°50'5 1.6
2017-Jan-11 08:31N 39°32' E 025°48'8 3.2
2017-Jan-11 06:08N 39°27' E 025°41'  
2017-Jan-07 20:30N 39°39' E 025°39'12710.4
2017-Jan-07 08:16N 37°43' E 024°32'  
2017-Jan-04 11:18N 44°02' E 014°06'911.9
2017-Jan-04 10:32N 44°10' E 013°59'1211.8
2017-Jan-04 09:31N 44°20' E 013°49'1111.9
2017-Jan-04 08:33N 44°29' E 013°41'1211.9
2017-Jan-04 07:33N 44°39' E 013°31'1212.0
2017-Jan-04 06:33N 44°49' E 013°22'1211.9
2017-Jan-04 05:33N 44°59' E 013°13'1212.0
2017-Jan-04 04:33N 45°09' E 013°03'1211.9
2017-Jan-04 03:33N 45°20' E 012°59'1211.8
2017-Jan-04 02:33N 45°29' E 013°11'1211.8
2017-Jan-04 01:33N 45°36' E 013°25'1211.8
2017-Jan-04 00:33N 45°37' E 013°41'4 3.1
2017-Jan-03 23:25N 45°37' E 013°47'0 0.0
2017-Jan-03 22:31N 45°37' E 013°47'0 0.0
2017-Jan-03 21:31N 45°37' E 013°47'0 0.0
2017-Jan-03 20:31N 45°37' E 013°46'0 0.0
2017-Jan-03 19:28N 45°37' E 013°47'0 0.0
2017-Jan-03 18:16N 45°37' E 013°47'0 0.0
2017-Jan-03 17:28N 45°37' E 013°47'0 0.0
2017-Jan-03 16:28N 45°37' E 013°46'0 0.0
2017-Jan-03 15:31N 45°37' E 013°46'0 0.0
2017-Jan-03 14:28N 45°37' E 013°47'0 0.0
2017-Jan-03 13:31N 45°37' E 013°47'0 0.0
2017-Jan-03 12:07N 45°37' E 013°47'0 0.0
2017-Jan-03 11:25N 45°37' E 013°47'0 0.0
2017-Jan-03 10:10N 45°37' E 013°47'0 0.0
2017-Jan-03 09:28N 45°37' E 013°47'0 0.0
2017-Jan-03 08:33N 45°37' E 013°46'0 0.0
2017-Jan-03 07:32N 45°37' E 013°46'0 0.0
2017-Jan-03 06:25N 45°37' E 013°46'0 0.0
2017-Jan-03 05:31N 45°37' E 013°46'0 0.0
2017-Jan-03 04:31N 45°37' E 013°46'0 0.0
2017-Jan-03 03:28N 45°37' E 013°47'0 0.0
2017-Jan-03 02:19N 45°37' E 013°46'0 0.0
2017-Jan-03 01:25N 45°37' E 013°47'0 0.0
2017-Jan-03 00:31N 45°37' E 013°47'0 0.0
2017-Jan-02 23:25N 45°37' E 013°47'0 0.0
2017-Jan-02 22:31N 45°37' E 013°47'0 0.0
2017-Jan-02 21:22N 45°37' E 013°47'0 0.0
2017-Jan-02 20:25N 45°37' E 013°46'0 0.0
2017-Jan-02 19:25N 45°37' E 013°47'0 0.0
2017-Jan-02 18:31N 45°37' E 013°47'0 0.0
2017-Jan-02 17:25N 45°37' E 013°47'0 0.0
2017-Jan-02 16:33N 45°37' E 013°47'3 3.4
2017-Jan-02 15:33N 45°37' E 013°42'1 0.9
2017-Jan-02 14:31N 45°38' E 013°41'0 0.1
2017-Jan-02 13:31N 45°38' E 013°40'0 0.1
2017-Jan-02 12:10N 45°38' E 013°40'0 0.0
2017-Jan-02 11:28N 45°38' E 013°40'0 0.1
2017-Jan-02 10:28N 45°38' E 013°40'0 0.1
2017-Jan-02 09:28N 45°38' E 013°40'0 0.0
2017-Jan-02 08:33N 45°38' E 013°40'2 1.7
2017-Jan-02 07:33N 45°37' E 013°38'7 7.3
2017-Jan-02 06:33N 45°33' E 013°29'1110.8
2017-Jan-02 05:34N 45°27' E 013°16'1111.0
2017-Jan-02 04:34N 45°17' E 013°11'1211.6
2017-Jan-02 03:33N 45°06' E 013°16'1211.6
2017-Jan-02 02:33N 44°55' E 013°23'1211.6
2017-Jan-02 01:33N 44°46' E 013°32'1211.7
2017-Jan-02 00:33N 44°36' E 013°41'1211.8
2017-Jan-01 23:34N 44°26' E 013°50'1212.0
2017-Jan-01 22:33N 44°16' E 013°59'1212.1
2017-Jan-01 21:33N 44°06' E 014°08'2512.1
2017-Jan-01 19:30N 43°46' E 014°30'  

Dump ship's entire track history